createdAt,value
2023-01-21T00:01:53.920Z,0.00
2023-01-21T00:02:53.855Z,0.00
2023-01-21T00:03:54.192Z,0.00
2023-01-21T00:04:53.906Z,0.00
2023-01-21T00:05:53.930Z,0.00
2023-01-21T00:06:53.971Z,0.00
2023-01-21T00:07:53.988Z,0.00
2023-01-21T00:08:54.015Z,0.00
2023-01-21T00:09:54.032Z,0.00
2023-01-21T00:10:54.372Z,0.00
2023-01-21T00:11:54.093Z,0.00
2023-01-21T00:12:54.564Z,0.00
2023-01-21T00:13:54.142Z,0.00
2023-01-21T00:14:54.186Z,0.00
2023-01-21T00:15:54.316Z,0.00
2023-01-21T00:16:54.228Z,0.00
2023-01-21T00:17:54.552Z,0.00
2023-01-21T00:18:54.274Z,0.00
2023-01-21T00:19:54.300Z,0.00
2023-01-21T00:20:54.364Z,0.00
2023-01-21T00:21:54.358Z,0.00
2023-01-21T00:22:54.856Z,0.00
2023-01-21T00:24:54.432Z,0.00
2023-01-21T00:25:54.765Z,0.00
2023-01-21T00:26:54.495Z,0.00
2023-01-21T00:27:54.541Z,0.00
2023-01-21T00:29:54.587Z,0.00
2023-01-21T00:30:54.654Z,0.00
2023-01-21T00:31:54.683Z,0.00
2023-01-21T00:33:54.991Z,0.00
2023-01-21T00:34:54.699Z,0.00
2023-01-21T00:35:54.731Z,0.00
2023-01-21T00:36:56.556Z,0.00
2023-01-21T00:37:54.783Z,0.00
2023-01-21T00:38:54.813Z,0.00
2023-01-21T00:39:54.864Z,0.00
2023-01-21T00:40:55.158Z,0.00
2023-01-21T00:41:54.895Z,0.00
2023-01-21T00:42:54.911Z,0.00
2023-01-21T00:43:54.944Z,0.00
2023-01-21T00:44:55.069Z,0.00
2023-01-21T00:45:55.073Z,0.00
2023-01-21T00:46:55.020Z,0.00
2023-01-21T00:47:55.353Z,0.00
2023-01-21T00:48:55.071Z,0.00
2023-01-21T00:49:55.098Z,0.00
2023-01-21T00:50:55.161Z,0.00
2023-01-21T00:51:55.155Z,0.00
2023-01-21T00:53:55.205Z,0.00
2023-01-21T00:54:55.542Z,0.00
2023-01-21T00:55:55.264Z,0.00
2023-01-21T00:56:55.283Z,0.00
2023-01-21T00:57:55.334Z,0.00
2023-01-21T00:58:55.347Z,0.00
2023-01-21T00:59:55.367Z,0.00
2023-01-21T01:00:55.395Z,0.00
2023-01-21T01:01:55.739Z,0.00
2023-01-21T01:02:55.535Z,0.00
2023-01-21T01:03:55.581Z,0.00
2023-01-21T01:04:55.497Z,0.00
2023-01-21T01:05:55.521Z,0.00
2023-01-21T01:06:55.550Z,0.00
2023-01-21T01:07:55.581Z,0.00
2023-01-21T01:08:55.946Z,0.00
2023-01-21T01:09:55.679Z,0.00
2023-01-21T01:10:55.677Z,0.00
2023-01-21T01:11:55.687Z,0.00
2023-01-21T01:12:55.721Z,0.00
2023-01-21T01:13:55.741Z,0.00
2023-01-21T01:14:55.764Z,0.00
2023-01-21T01:15:56.190Z,0.00
2023-01-21T01:16:55.814Z,0.00
2023-01-21T01:17:55.881Z,0.00
2023-01-21T01:18:55.871Z,0.00
2023-01-21T01:19:55.902Z,0.00
2023-01-21T01:20:55.985Z,0.00
2023-01-21T01:21:55.950Z,0.00
2023-01-21T01:22:56.277Z,0.00
2023-01-21T01:23:55.996Z,0.00
2023-01-21T01:24:56.027Z,0.00
2023-01-21T01:25:56.052Z,0.00
2023-01-21T01:26:56.096Z,0.00
2023-01-21T01:27:56.107Z,0.00
2023-01-21T01:28:56.136Z,0.00
2023-01-21T01:29:56.485Z,0.00
2023-01-21T01:30:56.346Z,0.00
2023-01-21T01:31:56.218Z,0.00
2023-01-21T01:32:56.241Z,0.00
2023-01-21T01:33:56.296Z,0.00
2023-01-21T01:35:56.317Z,0.00
2023-01-21T01:36:56.654Z,0.00
2023-01-21T01:37:56.375Z,0.00
2023-01-21T01:38:56.413Z,0.00
2023-01-21T01:40:56.450Z,0.00
2023-01-21T01:41:56.578Z,0.00
2023-01-21T01:42:56.516Z,0.00
2023-01-21T01:43:56.928Z,0.00
2023-01-21T01:44:56.585Z,0.00
2023-01-21T01:45:56.594Z,0.00
2023-01-21T01:46:56.611Z,0.00
2023-01-21T01:48:56.662Z,0.00
2023-01-21T01:49:56.712Z,0.00
2023-01-21T01:50:57.088Z,0.00
2023-01-21T01:51:56.744Z,0.00
2023-01-21T01:52:56.771Z,0.00
2023-01-21T01:53:56.803Z,0.00
2023-01-21T01:54:56.821Z,0.00
2023-01-21T01:55:56.867Z,0.00
2023-01-21T01:56:56.874Z,0.00
2023-01-21T01:57:57.209Z,0.00
2023-01-21T01:58:56.927Z,0.00
2023-01-21T01:59:56.963Z,0.00
2023-01-21T02:00:57.002Z,0.00
2023-01-21T02:01:57.108Z,0.00
2023-01-21T02:02:57.112Z,0.00
2023-01-21T02:03:57.077Z,0.00
2023-01-21T02:04:57.404Z,0.00
2023-01-21T02:05:57.146Z,0.00
2023-01-21T02:06:57.147Z,0.00
2023-01-21T02:07:57.165Z,0.00
2023-01-21T02:08:57.188Z,0.00
2023-01-21T02:09:57.226Z,0.00
2023-01-21T02:10:57.291Z,0.00
2023-01-21T02:11:57.275Z,0.00
2023-01-21T02:12:57.293Z,0.00
2023-01-21T02:13:57.328Z,0.00
2023-01-21T02:14:57.347Z,0.00
2023-01-21T02:15:57.447Z,0.00
2023-01-21T02:16:57.407Z,0.00
2023-01-21T02:17:57.729Z,0.00
2023-01-21T02:18:57.464Z,0.00
2023-01-21T02:19:57.500Z,0.00
2023-01-21T02:20:57.517Z,0.00
2023-01-21T02:21:57.559Z,0.00
2023-01-21T02:22:57.635Z,0.00
2023-01-21T02:23:57.889Z,0.00
2023-01-21T02:24:57.613Z,0.00
2023-01-21T02:25:57.640Z,0.00
2023-01-21T02:26:57.665Z,0.00
2023-01-21T02:28:57.740Z,0.00
2023-01-21T02:29:58.058Z,0.00
2023-01-21T02:30:57.967Z,0.00
2023-01-21T02:31:57.789Z,0.00
2023-01-21T02:33:57.846Z,0.00
2023-01-21T02:34:57.883Z,0.00
2023-01-21T02:35:58.221Z,0.00
2023-01-21T02:36:57.935Z,0.00
2023-01-21T02:37:57.981Z,0.00
2023-01-21T02:38:58.012Z,0.00
2023-01-21T02:39:58.006Z,0.00
2023-01-21T02:40:58.038Z,0.00
2023-01-21T02:41:58.065Z,0.00
2023-01-21T02:42:58.390Z,0.00
2023-01-21T02:43:58.116Z,0.00
2023-01-21T02:44:58.136Z,0.00
2023-01-21T02:45:58.172Z,0.00
2023-01-21T02:46:58.245Z,0.00
2023-01-21T02:47:58.219Z,0.00
2023-01-21T02:48:58.250Z,0.00
2023-01-21T02:49:58.571Z,0.00
2023-01-21T02:50:58.317Z,0.00
2023-01-21T02:51:58.336Z,0.00
2023-01-21T02:52:58.348Z,0.00
2023-01-21T02:53:58.501Z,0.00
2023-01-21T02:54:58.435Z,0.00
2023-01-21T02:55:58.435Z,0.00
2023-01-21T02:56:58.752Z,0.00
2023-01-21T02:57:58.484Z,0.00
2023-01-21T02:58:58.866Z,0.00
2023-01-21T02:59:58.578Z,0.00
2023-01-21T03:00:58.596Z,0.00
2023-01-21T03:01:58.602Z,0.00
2023-01-21T03:02:58.607Z,0.00
2023-01-21T03:03:58.951Z,0.00
2023-01-21T03:04:58.684Z,0.00
2023-01-21T03:05:58.706Z,0.00
2023-01-21T03:06:58.752Z,0.00
2023-01-21T03:07:58.742Z,0.00
2023-01-21T03:08:58.767Z,0.00
2023-01-21T03:09:58.922Z,0.00
2023-01-21T03:10:59.128Z,0.00
2023-01-21T03:11:58.903Z,0.00
2023-01-21T03:12:58.901Z,0.00
2023-01-21T03:13:58.920Z,0.00
2023-01-21T03:14:58.936Z,0.00
2023-01-21T03:15:59.038Z,0.00
2023-01-21T03:16:58.999Z,0.00
2023-01-21T03:17:59.324Z,0.00
2023-01-21T03:18:59.037Z,0.00
2023-01-21T03:19:59.071Z,0.00
2023-01-21T03:20:59.086Z,0.00
2023-01-21T03:21:59.112Z,0.00
2023-01-21T03:23:59.180Z,0.00
2023-01-21T03:24:59.488Z,0.00
2023-01-21T03:25:59.240Z,0.00
2023-01-21T03:26:59.241Z,0.00
2023-01-21T03:27:59.265Z,0.00
2023-01-21T03:28:59.295Z,0.00
2023-01-21T03:29:59.327Z,0.00
2023-01-21T03:31:59.383Z,0.00
2023-01-21T03:32:59.704Z,0.00
2023-01-21T03:33:59.425Z,0.00
2023-01-21T03:34:59.445Z,0.00
2023-01-21T03:35:59.475Z,0.00
2023-01-21T03:36:59.504Z,0.00
2023-01-21T03:37:59.524Z,0.00
2023-01-21T03:38:59.553Z,0.00
2023-01-21T03:41:59.953Z,0.00
2023-01-21T03:42:59.660Z,0.00
2023-01-21T03:43:59.685Z,0.00
2023-01-21T03:44:59.715Z,0.00
2023-01-21T03:45:59.869Z,0.00
2023-01-21T03:46:59.779Z,0.00
2023-01-21T03:47:59.810Z,0.00
2023-01-21T03:50:00.164Z,0.00
2023-01-21T03:50:59.928Z,0.00
2023-01-21T03:51:59.897Z,0.00
2023-01-21T03:52:59.922Z,0.00
2023-01-21T03:53:59.957Z,0.00
2023-01-21T03:54:59.976Z,0.00
2023-01-21T03:56:00.305Z,0.00
2023-01-21T03:57:00.035Z,0.00
2023-01-21T03:58:00.137Z,0.00
2023-01-21T03:59:00.094Z,0.00
2023-01-21T04:00:00.128Z,0.00
2023-01-21T04:01:00.169Z,0.00
2023-01-21T04:02:00.230Z,0.00
2023-01-21T04:03:00.475Z,0.00
2023-01-21T04:04:00.239Z,0.00
2023-01-21T04:05:00.239Z,0.00
2023-01-21T04:06:00.263Z,0.00
2023-01-21T04:07:00.285Z,0.00
2023-01-21T04:08:00.310Z,0.00
2023-01-21T04:09:00.335Z,0.00
2023-01-21T04:10:00.760Z,0.00
2023-01-21T04:11:00.399Z,0.00
2023-01-21T04:12:00.421Z,0.00
2023-01-21T04:13:00.437Z,0.00
2023-01-21T04:14:00.487Z,0.00
2023-01-21T04:15:00.506Z,0.00
2023-01-21T04:16:00.650Z,0.00
2023-01-21T04:17:00.840Z,0.00
2023-01-21T04:18:00.577Z,0.00
2023-01-21T04:19:00.589Z,0.00
2023-01-21T04:20:00.628Z,0.00
2023-01-21T04:21:00.646Z,0.00
2023-01-21T04:22:00.675Z,0.00
2023-01-21T04:23:00.704Z,0.00
2023-01-21T04:24:01.032Z,0.00
2023-01-21T04:25:00.762Z,0.00
2023-01-21T04:26:01.552Z,0.00
2023-01-21T04:27:00.802Z,0.00
2023-01-21T04:28:00.955Z,0.00
2023-01-21T04:29:00.858Z,0.00
2023-01-21T04:30:00.913Z,0.00
2023-01-21T04:31:01.233Z,0.00
2023-01-21T04:32:00.982Z,0.00
2023-01-21T04:33:00.957Z,0.00
2023-01-21T04:34:00.998Z,0.00
2023-01-21T04:35:01.014Z,0.00
2023-01-21T04:36:01.051Z,0.00
2023-01-21T04:37:01.073Z,0.00
2023-01-21T04:38:01.396Z,0.00
2023-01-21T04:39:01.118Z,0.00
2023-01-21T04:40:01.240Z,0.00
2023-01-21T04:41:01.270Z,0.00
2023-01-21T04:42:01.196Z,0.00
2023-01-21T04:43:01.231Z,0.00
2023-01-21T04:45:01.280Z,0.00
2023-01-21T04:46:01.701Z,0.00
2023-01-21T04:47:01.339Z,0.00
2023-01-21T04:48:01.347Z,0.00
2023-01-21T04:49:01.396Z,0.00
2023-01-21T04:50:01.401Z,0.00
2023-01-21T04:51:01.451Z,0.00
2023-01-21T04:52:01.458Z,0.00
2023-01-21T04:53:01.784Z,0.00
2023-01-21T04:54:01.534Z,0.00
2023-01-21T04:55:01.555Z,0.00
2023-01-21T04:56:01.561Z,0.00
2023-01-21T04:57:01.610Z,0.00
2023-01-21T04:58:01.616Z,0.00
2023-01-21T04:59:01.636Z,0.00
2023-01-21T05:00:02.964Z,0.00
2023-01-21T05:01:01.746Z,0.00
2023-01-21T05:02:01.759Z,0.00
2023-01-21T05:03:01.740Z,0.00
2023-01-21T05:04:01.821Z,0.00
2023-01-21T05:05:01.791Z,0.00
2023-01-21T05:06:01.816Z,0.00
2023-01-21T05:07:02.143Z,0.00
2023-01-21T05:08:01.867Z,0.00
2023-01-21T05:09:01.905Z,0.00
2023-01-21T05:10:01.929Z,0.00
2023-01-21T05:11:01.953Z,0.00
2023-01-21T05:12:01.968Z,0.00
2023-01-21T05:13:02.005Z,0.00
2023-01-21T05:14:02.340Z,0.00
2023-01-21T05:15:02.047Z,0.00
2023-01-21T05:16:02.120Z,0.00
2023-01-21T05:17:02.267Z,0.00
2023-01-21T05:18:02.160Z,0.00
2023-01-21T05:19:02.173Z,0.00
2023-01-21T05:20:02.396Z,0.00
2023-01-21T05:21:02.513Z,0.00
2023-01-21T05:22:02.243Z,0.00
2023-01-21T05:23:02.257Z,0.00
2023-01-21T05:25:02.323Z,0.00
2023-01-21T05:27:02.378Z,0.00
2023-01-21T05:28:02.691Z,0.00
2023-01-21T05:29:02.415Z,0.00
2023-01-21T05:30:02.469Z,0.00
2023-01-21T05:31:02.628Z,0.00
2023-01-21T05:32:02.592Z,0.00
2023-01-21T05:34:02.568Z,0.00
2023-01-21T05:35:02.881Z,0.00
2023-01-21T05:36:02.596Z,0.00
2023-01-21T05:37:02.621Z,0.00
2023-01-21T05:38:02.661Z,0.00
2023-01-21T05:39:02.675Z,0.00
2023-01-21T05:40:02.723Z,0.00
2023-01-21T05:42:02.752Z,0.00
2023-01-21T05:43:03.085Z,0.00
2023-01-21T05:44:02.811Z,0.00
2023-01-21T05:45:02.879Z,0.00
2023-01-21T05:46:03.006Z,0.00
2023-01-21T05:47:02.914Z,0.00
2023-01-21T05:48:02.906Z,0.00
2023-01-21T05:49:02.939Z,0.00
2023-01-21T05:50:03.290Z,0.00
2023-01-21T05:51:02.997Z,0.00
2023-01-21T05:52:03.014Z,0.00
2023-01-21T05:53:03.105Z,0.00
2023-01-21T05:54:03.060Z,0.00
2023-01-21T05:55:03.231Z,0.00
2023-01-21T05:56:03.117Z,0.00
2023-01-21T05:57:03.441Z,0.00
2023-01-21T05:58:03.162Z,0.00
2023-01-21T05:59:03.189Z,0.00
2023-01-21T06:00:03.220Z,0.00
2023-01-21T06:01:03.265Z,0.00
2023-01-21T06:02:03.290Z,0.00
2023-01-21T06:03:03.293Z,0.00
2023-01-21T06:04:03.619Z,0.00
2023-01-21T06:05:03.352Z,0.00
2023-01-21T06:06:03.400Z,0.00
2023-01-21T06:07:03.396Z,0.00
2023-01-21T06:08:03.425Z,0.00
2023-01-21T06:09:03.474Z,0.00
2023-01-21T06:10:03.477Z,0.00
2023-01-21T06:11:03.813Z,0.00
2023-01-21T06:12:03.548Z,0.00
2023-01-21T06:13:03.554Z,0.00
2023-01-21T06:14:03.579Z,0.00
2023-01-21T06:16:03.690Z,0.00
2023-01-21T06:17:03.680Z,0.00
2023-01-21T06:18:03.981Z,0.00
2023-01-21T06:20:03.836Z,0.00
2023-01-21T06:21:03.774Z,0.00
2023-01-21T06:22:03.805Z,0.00
2023-01-21T06:23:03.814Z,0.00
2023-01-21T06:24:03.841Z,0.00
2023-01-21T06:25:04.164Z,0.00
2023-01-21T06:26:03.898Z,0.00
2023-01-21T06:27:03.920Z,0.00
2023-01-21T06:28:03.940Z,0.00
2023-01-21T06:29:03.966Z,0.00
2023-01-21T06:30:04.000Z,0.00
2023-01-21T06:31:04.469Z,0.00
2023-01-21T06:32:04.206Z,0.00
2023-01-21T06:33:04.105Z,0.00
2023-01-21T06:34:04.095Z,0.00
2023-01-21T06:35:04.135Z,0.00
2023-01-21T06:36:04.388Z,0.00
2023-01-21T06:37:04.660Z,0.00
2023-01-21T06:38:04.457Z,0.00
2023-01-21T06:39:04.460Z,0.00
2023-01-21T06:40:04.541Z,0.00
2023-01-21T06:41:04.335Z,0.00
2023-01-21T06:42:04.345Z,0.00
2023-01-21T06:43:04.640Z,0.00
2023-01-21T06:44:04.363Z,0.00
2023-01-21T06:45:04.418Z,0.00
2023-01-21T06:46:04.487Z,0.00
2023-01-21T06:47:04.509Z,0.00
2023-01-21T06:48:04.539Z,0.00
2023-01-21T06:49:04.481Z,0.00
2023-01-21T06:50:04.812Z,0.00
2023-01-21T06:51:04.547Z,0.00
2023-01-21T06:52:04.557Z,0.00
2023-01-21T06:53:04.581Z,0.00
2023-01-21T06:54:04.735Z,0.00
2023-01-21T06:55:04.636Z,0.00
2023-01-21T06:56:04.668Z,0.00
2023-01-21T06:57:04.994Z,0.00
2023-01-21T06:58:04.716Z,0.00
2023-01-21T06:59:04.739Z,0.00
2023-01-21T07:00:04.775Z,0.00
2023-01-21T07:01:04.791Z,0.00
2023-01-21T07:02:04.813Z,0.00
2023-01-21T07:03:04.881Z,0.00
2023-01-21T07:04:05.193Z,0.00
2023-01-21T07:05:04.946Z,0.00
2023-01-21T07:06:04.916Z,0.00
2023-01-21T07:07:04.943Z,0.00
2023-01-21T07:08:04.967Z,0.00
2023-01-21T07:09:05.000Z,0.00
2023-01-21T07:10:05.040Z,0.00
2023-01-21T07:11:05.361Z,0.00
2023-01-21T07:12:05.073Z,0.00
2023-01-21T07:13:05.115Z,0.00
2023-01-21T07:14:05.123Z,0.00
2023-01-21T07:15:05.153Z,0.00
2023-01-21T07:16:06.918Z,0.00
2023-01-21T07:17:05.207Z,0.00
2023-01-21T07:18:05.624Z,0.00
2023-01-21T07:19:05.261Z,0.00
2023-01-21T07:20:05.295Z,0.00
2023-01-21T07:22:05.496Z,0.00
2023-01-21T07:23:05.360Z,0.00
2023-01-21T07:24:05.410Z,0.00
2023-01-21T07:25:05.714Z,0.00
2023-01-21T07:26:05.457Z,0.00
2023-01-21T07:27:05.736Z,0.00
2023-01-21T07:28:05.486Z,0.00
2023-01-21T07:29:05.639Z,0.00
2023-01-21T07:30:05.662Z,0.00
2023-01-21T07:31:05.660Z,0.00
2023-01-21T07:32:05.959Z,0.00
2023-01-21T07:33:05.620Z,0.00
2023-01-21T07:34:05.651Z,0.00
2023-01-21T07:35:05.663Z,5.63
2023-01-21T07:36:05.699Z,5.63
2023-01-21T07:37:05.732Z,5.63
2023-01-21T07:38:05.740Z,5.63
2023-01-21T07:39:06.081Z,5.63
2023-01-21T07:40:05.797Z,5.63
2023-01-21T07:41:05.816Z,5.63
2023-01-21T07:42:05.862Z,5.63
2023-01-21T07:43:05.878Z,5.63
2023-01-21T07:44:05.909Z,5.63
2023-01-21T07:45:05.923Z,5.63
2023-01-21T07:46:06.248Z,5.63
2023-01-21T07:47:05.975Z,5.63
2023-01-21T07:48:06.003Z,5.63
2023-01-21T07:49:06.039Z,11.25
2023-01-21T07:50:06.055Z,11.25
2023-01-21T07:51:06.264Z,11.25
2023-01-21T07:52:06.103Z,11.25
2023-01-21T07:53:06.463Z,11.25
2023-01-21T07:54:06.149Z,11.25
2023-01-21T07:55:06.183Z,11.25
2023-01-21T07:56:06.225Z,11.25
2023-01-21T07:57:06.303Z,11.25
2023-01-21T07:58:06.279Z,11.25
2023-01-21T08:00:06.612Z,11.25
2023-01-21T08:01:06.444Z,16.88
2023-01-21T08:02:06.528Z,16.88
2023-01-21T08:03:06.385Z,16.88
2023-01-21T08:04:06.414Z,16.88
2023-01-21T08:05:06.451Z,16.88
2023-01-21T08:06:06.466Z,16.88
2023-01-21T08:07:06.793Z,16.88
2023-01-21T08:08:06.509Z,16.88
2023-01-21T08:09:06.542Z,16.88
2023-01-21T08:10:06.561Z,16.88
2023-01-21T08:11:06.587Z,16.88
2023-01-21T08:12:06.667Z,16.88
2023-01-21T08:13:06.640Z,16.88
2023-01-21T08:14:06.999Z,16.88
2023-01-21T08:15:06.694Z,22.50
2023-01-21T08:16:07.002Z,22.50
2023-01-21T08:17:06.751Z,22.50
2023-01-21T08:18:06.776Z,22.50
2023-01-21T08:19:06.797Z,22.50
2023-01-21T08:20:06.825Z,22.50
2023-01-21T08:21:07.154Z,22.50
2023-01-21T08:22:06.880Z,22.50
2023-01-21T08:23:06.903Z,22.50
2023-01-21T08:24:06.933Z,22.50
2023-01-21T08:25:06.952Z,22.50
2023-01-21T08:26:06.982Z,22.50
2023-01-21T08:27:07.051Z,22.50
2023-01-21T08:28:07.348Z,22.50
2023-01-21T08:29:07.075Z,22.50
2023-01-21T08:30:07.162Z,28.13
2023-01-21T08:31:07.300Z,28.13
2023-01-21T08:32:07.130Z,28.13
2023-01-21T08:34:07.179Z,28.13
2023-01-21T08:35:07.465Z,28.13
2023-01-21T08:36:07.246Z,28.13
2023-01-21T08:37:07.302Z,28.13
2023-01-21T08:39:07.320Z,28.13
2023-01-21T08:40:07.437Z,28.13
2023-01-21T08:41:07.661Z,28.13
2023-01-21T08:42:07.398Z,28.13
2023-01-21T08:43:07.421Z,28.13
2023-01-21T08:44:07.442Z,28.13
2023-01-21T08:45:07.466Z,28.13
2023-01-21T08:46:07.625Z,28.13
2023-01-21T08:47:07.827Z,28.13
2023-01-21T08:48:07.553Z,28.13
2023-01-21T08:49:07.568Z,28.13
2023-01-21T08:50:07.620Z,33.75
2023-01-21T08:51:07.983Z,33.75
2023-01-21T08:52:07.649Z,33.75
2023-01-21T08:53:07.972Z,33.75
2023-01-21T08:54:07.701Z,33.75
2023-01-21T08:55:07.733Z,33.75
2023-01-21T08:56:07.762Z,33.75
2023-01-21T08:57:07.856Z,33.75
2023-01-21T08:58:07.810Z,28.13
2023-01-21T08:59:07.832Z,33.75
2023-01-21T09:00:08.153Z,28.13
2023-01-21T09:01:07.943Z,28.13
2023-01-21T09:02:07.980Z,28.13
2023-01-21T09:03:07.937Z,28.13
2023-01-21T09:04:07.968Z,28.13
2023-01-21T09:05:07.999Z,28.13
2023-01-21T09:06:08.016Z,28.13
2023-01-21T09:07:08.338Z,33.75
2023-01-21T09:08:08.059Z,33.75
2023-01-21T09:09:08.092Z,33.75
2023-01-21T09:10:08.135Z,33.75
2023-01-21T09:11:08.190Z,33.75
2023-01-21T09:12:08.171Z,33.75
2023-01-21T09:13:08.292Z,33.75
2023-01-21T09:14:08.582Z,33.75
2023-01-21T09:15:08.272Z,33.75
2023-01-21T09:16:12.193Z,33.75
2023-01-21T09:17:08.294Z,33.75
2023-01-21T09:18:08.344Z,33.75
2023-01-21T09:20:08.374Z,33.75
2023-01-21T09:21:08.702Z,33.75
2023-01-21T09:22:08.441Z,33.75
2023-01-21T09:23:08.458Z,39.38
2023-01-21T09:24:08.482Z,39.38
2023-01-21T09:25:08.500Z,33.75
2023-01-21T09:26:08.526Z,33.75
2023-01-21T09:27:08.561Z,39.38
2023-01-21T09:28:08.884Z,33.75
2023-01-21T09:30:08.634Z,33.75
2023-01-21T09:31:08.662Z,33.75
2023-01-21T09:32:08.680Z,33.75
2023-01-21T09:33:08.710Z,39.38
2023-01-21T09:34:08.755Z,39.38
2023-01-21T09:35:09.142Z,39.38
2023-01-21T09:36:08.840Z,39.38
2023-01-21T09:37:08.820Z,39.38
2023-01-21T09:38:08.838Z,39.38
2023-01-21T09:39:08.870Z,39.38
2023-01-21T09:40:08.891Z,39.38
2023-01-21T09:41:08.934Z,39.38
2023-01-21T09:42:09.239Z,39.38
2023-01-21T09:43:08.968Z,39.38
2023-01-21T09:44:08.992Z,39.38
2023-01-21T09:45:09.023Z,45.00
2023-01-21T09:46:09.122Z,45.00
2023-01-21T09:48:09.398Z,45.00
2023-01-21T09:49:09.143Z,45.00
2023-01-21T09:50:09.170Z,45.00
2023-01-21T09:51:09.205Z,45.00
2023-01-21T09:52:09.199Z,45.00
2023-01-21T09:53:09.227Z,45.00
2023-01-21T09:54:09.258Z,45.00
2023-01-21T09:55:09.646Z,45.00
2023-01-21T09:56:09.311Z,45.00
2023-01-21T09:57:09.384Z,45.00
2023-01-21T09:58:09.383Z,45.00
2023-01-21T09:59:09.386Z,45.00
2023-01-21T10:00:09.554Z,45.00
2023-01-21T10:01:09.807Z,45.00
2023-01-21T10:02:09.463Z,45.00
2023-01-21T10:03:09.542Z,45.00
2023-01-21T10:05:09.558Z,45.00
2023-01-21T10:06:09.585Z,50.63
2023-01-21T10:07:09.887Z,50.63
2023-01-21T10:08:09.639Z,50.63
2023-01-21T10:09:09.649Z,50.63
2023-01-21T10:10:09.675Z,50.63
2023-01-21T10:11:09.708Z,45.00
2023-01-21T10:12:09.723Z,50.63
2023-01-21T10:13:10.052Z,50.63
2023-01-21T10:14:09.777Z,50.63
2023-01-21T10:15:09.825Z,45.00
2023-01-21T10:16:09.826Z,45.00
2023-01-21T10:17:09.855Z,45.00
2023-01-21T10:18:09.875Z,45.00
2023-01-21T10:19:09.906Z,39.38
2023-01-21T10:20:10.352Z,39.38
2023-01-21T10:21:09.954Z,39.38
2023-01-21T10:22:10.024Z,45.00
2023-01-21T10:23:10.040Z,45.00
2023-01-21T10:24:10.041Z,39.38
2023-01-21T10:25:10.060Z,39.38
2023-01-21T10:26:10.200Z,39.38
2023-01-21T10:27:10.417Z,39.38
2023-01-21T10:28:10.158Z,39.38
2023-01-21T10:29:10.224Z,39.38
2023-01-21T10:30:10.302Z,33.75
2023-01-21T10:31:10.356Z,33.75
2023-01-21T10:32:10.266Z,39.38
2023-01-21T10:33:10.276Z,39.38
2023-01-21T10:34:10.597Z,39.38
2023-01-21T10:35:10.383Z,45.00
2023-01-21T10:36:10.354Z,45.00
2023-01-21T10:37:10.403Z,45.00
2023-01-21T10:38:10.422Z,45.00
2023-01-21T10:39:10.507Z,45.00
2023-01-21T10:40:10.452Z,45.00
2023-01-21T10:41:10.789Z,45.00
2023-01-21T10:42:10.505Z,45.00
2023-01-21T10:43:10.560Z,39.38
2023-01-21T10:44:10.561Z,39.38
2023-01-21T10:45:10.599Z,33.75
2023-01-21T10:46:10.724Z,33.75
2023-01-21T10:47:10.742Z,33.75
2023-01-21T10:49:11.007Z,28.13
2023-01-21T10:50:10.712Z,28.13
2023-01-21T10:51:10.772Z,33.75
2023-01-21T10:52:10.771Z,33.75
2023-01-21T10:53:10.804Z,33.75
2023-01-21T10:54:10.850Z,39.38
2023-01-21T10:55:10.856Z,39.38
2023-01-21T10:56:11.176Z,39.38
2023-01-21T10:57:10.911Z,39.38
2023-01-21T10:58:10.931Z,39.38
2023-01-21T10:59:10.958Z,39.38
2023-01-21T11:00:10.980Z,33.75
2023-01-21T11:01:11.120Z,39.38
2023-01-21T11:02:11.100Z,39.38
2023-01-21T11:04:11.394Z,33.75
2023-01-21T11:05:11.108Z,33.75
2023-01-21T11:06:11.134Z,33.75
2023-01-21T11:07:11.172Z,39.38
2023-01-21T11:08:11.194Z,39.38
2023-01-21T11:09:11.236Z,39.38
2023-01-21T11:10:11.427Z,33.75
2023-01-21T11:12:11.601Z,39.38
2023-01-21T11:13:11.320Z,39.38
2023-01-21T11:14:11.350Z,33.75
2023-01-21T11:15:11.430Z,33.75
2023-01-21T11:16:11.487Z,33.75
2023-01-21T11:17:11.427Z,33.75
2023-01-21T11:18:11.809Z,33.75
2023-01-21T11:19:11.476Z,33.75
2023-01-21T11:20:11.570Z,33.75
2023-01-21T11:21:11.528Z,33.75
2023-01-21T11:22:11.554Z,28.13
2023-01-21T11:23:11.598Z,28.13
2023-01-21T11:24:11.605Z,28.13
2023-01-21T11:25:11.933Z,33.75
2023-01-21T11:26:11.835Z,33.75
2023-01-21T11:27:11.810Z,33.75
2023-01-21T11:28:11.883Z,33.75
2023-01-21T11:29:11.852Z,33.75
2023-01-21T11:30:31.868Z,33.75
2023-01-21T11:31:12.832Z,33.75
2023-01-21T11:32:12.073Z,33.75
2023-01-21T11:33:11.952Z,28.13
2023-01-21T11:34:11.935Z,28.13
2023-01-21T11:35:11.901Z,28.13
2023-01-21T11:36:11.919Z,28.13
2023-01-21T11:37:11.951Z,28.13
2023-01-21T11:38:12.276Z,28.13
2023-01-21T11:39:12.004Z,28.13
2023-01-21T11:40:12.098Z,22.50
2023-01-21T11:41:12.137Z,22.50
2023-01-21T11:42:12.161Z,16.88
2023-01-21T11:43:12.160Z,22.50
2023-01-21T11:44:12.290Z,16.88
2023-01-21T11:45:12.514Z,16.88
2023-01-21T11:46:12.255Z,16.88
2023-01-21T11:47:12.408Z,22.50
2023-01-21T11:48:12.329Z,33.75
2023-01-21T11:49:12.284Z,33.75
2023-01-21T11:50:12.311Z,39.38
2023-01-21T11:51:12.391Z,39.38
2023-01-21T11:52:12.872Z,39.38
2023-01-21T11:53:12.409Z,45.00
2023-01-21T11:54:12.411Z,45.00
2023-01-21T11:55:12.452Z,45.00
2023-01-21T11:56:12.489Z,50.63
2023-01-21T11:57:12.836Z,50.63
2023-01-21T11:58:12.642Z,50.63
2023-01-21T11:59:12.882Z,50.63
2023-01-21T12:00:12.649Z,50.63
2023-01-21T12:01:12.589Z,50.63
2023-01-21T12:02:12.822Z,45.00
2023-01-21T12:03:12.844Z,45.00
2023-01-21T12:05:12.837Z,45.00
2023-01-21T12:06:13.171Z,50.63
2023-01-21T12:07:12.889Z,45.00
2023-01-21T12:08:12.931Z,45.00
2023-01-21T12:09:12.903Z,45.00
2023-01-21T12:10:13.167Z,45.00
2023-01-21T12:11:12.957Z,45.00
2023-01-21T12:12:12.867Z,50.63
2023-01-21T12:13:13.208Z,45.00
2023-01-21T12:14:13.009Z,45.00
2023-01-21T12:15:12.955Z,45.00
2023-01-21T12:16:13.094Z,39.38
2023-01-21T12:17:13.001Z,45.00
2023-01-21T12:18:13.086Z,45.00
2023-01-21T12:19:13.083Z,45.00
2023-01-21T12:20:13.397Z,50.63
2023-01-21T12:21:13.113Z,45.00
2023-01-21T12:22:13.134Z,45.00
2023-01-21T12:23:13.165Z,45.00
2023-01-21T12:24:13.284Z,45.00
2023-01-21T12:25:13.210Z,45.00
2023-01-21T12:27:13.571Z,39.38
2023-01-21T12:28:13.300Z,39.38
2023-01-21T12:29:13.401Z,39.38
2023-01-21T12:30:13.417Z,45.00
2023-01-21T12:31:13.497Z,39.38
2023-01-21T12:32:13.402Z,39.38
2023-01-21T12:33:13.846Z,39.38
2023-01-21T12:34:13.461Z,39.38
2023-01-21T12:35:13.481Z,45.00
2023-01-21T12:36:13.537Z,39.38
2023-01-21T12:37:13.575Z,45.00
2023-01-21T12:38:13.553Z,45.00
2023-01-21T12:39:13.895Z,45.00
2023-01-21T12:40:13.640Z,45.00
2023-01-21T12:41:13.648Z,39.38
2023-01-21T12:42:13.665Z,39.38
2023-01-21T12:43:13.689Z,39.38
2023-01-21T12:44:13.767Z,39.38
2023-01-21T12:45:14.240Z,39.38
2023-01-21T12:46:13.838Z,39.38
2023-01-21T12:48:13.949Z,39.38
2023-01-21T12:49:13.872Z,39.38
2023-01-21T12:50:13.884Z,33.75
2023-01-21T12:51:13.945Z,33.75
2023-01-21T12:52:14.233Z,33.75
2023-01-21T12:53:13.967Z,33.75
2023-01-21T12:54:13.980Z,33.75
2023-01-21T12:55:14.028Z,28.13
2023-01-21T12:56:14.134Z,28.13
2023-01-21T12:57:14.192Z,33.75
2023-01-21T12:58:14.111Z,33.75
2023-01-21T12:59:14.628Z,33.75
2023-01-21T13:00:14.171Z,33.75
2023-01-21T13:02:14.369Z,33.75
2023-01-21T13:03:14.233Z,28.13
2023-01-21T13:04:14.252Z,28.13
2023-01-21T13:05:14.479Z,28.13
2023-01-21T13:06:14.605Z,28.13
2023-01-21T13:07:14.326Z,28.13
2023-01-21T13:08:14.431Z,28.13
2023-01-21T13:09:14.513Z,28.13
2023-01-21T13:10:14.559Z,28.13
2023-01-21T13:11:14.457Z,28.13
2023-01-21T13:12:14.459Z,28.13
2023-01-21T13:13:14.867Z,28.13
2023-01-21T13:14:14.518Z,28.13
2023-01-21T13:15:14.541Z,28.13
2023-01-21T13:16:14.615Z,28.13
2023-01-21T13:18:14.659Z,28.13
2023-01-21T13:19:14.646Z,28.13
2023-01-21T13:20:15.214Z,28.13
2023-01-21T13:21:14.739Z,28.13
2023-01-21T13:22:14.851Z,28.13
2023-01-21T13:23:14.752Z,28.13
2023-01-21T13:24:14.793Z,28.13
2023-01-21T13:25:14.833Z,28.13
2023-01-21T13:26:14.861Z,28.13
2023-01-21T13:27:15.386Z,28.13
2023-01-21T13:28:14.898Z,28.13
2023-01-21T13:29:14.917Z,28.13
2023-01-21T13:30:15.162Z,33.75
2023-01-21T13:31:15.110Z,28.13
2023-01-21T13:32:15.033Z,28.13
2023-01-21T13:33:15.159Z,33.75
2023-01-21T13:34:15.438Z,33.75
2023-01-21T13:35:15.363Z,28.13
2023-01-21T13:36:15.258Z,28.13
2023-01-21T13:37:15.289Z,33.75
2023-01-21T13:38:15.167Z,33.75
2023-01-21T13:39:15.210Z,33.75
2023-01-21T13:40:15.722Z,33.75
2023-01-21T13:41:15.549Z,28.13
2023-01-21T13:42:15.275Z,22.50
2023-01-21T13:43:15.280Z,22.50
2023-01-21T13:44:15.333Z,22.50
2023-01-21T13:45:15.434Z,22.50
2023-01-21T13:46:15.633Z,22.50